createdAt,value
2023-03-07T00:04:02.317Z,95577.94
2023-03-07T00:09:23.150Z,95580.53
2023-03-07T00:14:43.793Z,95574.91
2023-03-07T00:20:07.459Z,95573.63
2023-03-07T00:25:28.072Z,95576.31
2023-03-07T00:30:48.857Z,95560.53
2023-03-07T00:36:21.099Z,95553.03
2023-03-07T00:41:42.081Z,95542.50
2023-03-07T00:47:02.841Z,95541.94
2023-03-07T00:52:24.112Z,95536.63
2023-03-07T00:57:44.809Z,95524.06
2023-03-07T01:03:05.485Z,95516.94
2023-03-07T01:08:26.164Z,95506.19
2023-03-07T01:13:47.093Z,95503.06
2023-03-07T01:19:12.470Z,95491.72
2023-03-07T01:24:32.972Z,95493.22
2023-03-07T01:29:53.700Z,95489.50
2023-03-07T01:35:15.045Z,95478.38
2023-03-07T01:40:38.507Z,95480.00
2023-03-07T01:46:18.113Z,95477.81
2023-03-07T01:51:46.441Z,95467.63
2023-03-07T01:57:08.004Z,95470.44
2023-03-07T02:02:29.488Z,95462.97
2023-03-07T02:07:52.845Z,95454.44
2023-03-07T02:13:17.960Z,95452.81
2023-03-07T02:18:44.533Z,95447.88
2023-03-07T02:24:05.409Z,95445.69
2023-03-07T02:29:26.739Z,95445.00
2023-03-07T02:34:47.434Z,95444.78
2023-03-07T02:40:14.514Z,95440.47
2023-03-07T02:45:35.780Z,95428.78
2023-03-07T02:50:56.642Z,95429.84
2023-03-07T02:56:18.067Z,95428.66
2023-03-07T03:01:39.334Z,95426.09
2023-03-07T03:07:00.025Z,95422.47
2023-03-07T03:12:20.771Z,95420.25
2023-03-07T03:17:41.727Z,95422.47
2023-03-07T03:23:02.495Z,95418.16
2023-03-07T03:28:23.198Z,95417.09
2023-03-07T03:33:44.863Z,95406.97
2023-03-07T03:39:10.963Z,95406.38
2023-03-07T03:44:36.973Z,95398.06
2023-03-07T03:49:57.524Z,95395.03
2023-03-07T03:55:18.714Z,95393.25
2023-03-07T04:00:39.526Z,95391.16
2023-03-07T04:06:09.065Z,95394.53
2023-03-07T04:11:30.038Z,95382.59
2023-03-07T04:16:50.707Z,95379.91
2023-03-07T04:22:11.494Z,95378.63
2023-03-07T04:27:35.265Z,95369.66
2023-03-07T04:32:56.927Z,95371.78
2023-03-07T04:38:17.524Z,95368.75
2023-03-07T04:43:38.445Z,95363.41
2023-03-07T04:48:59.076Z,95356.50
2023-03-07T04:54:20.849Z,95358.25
2023-03-07T04:59:43.562Z,95349.25
2023-03-07T05:05:05.841Z,95337.97
2023-03-07T05:10:27.735Z,95335.03
2023-03-07T05:15:53.703Z,95339.13
2023-03-07T05:21:16.066Z,95326.63
2023-03-07T05:26:36.948Z,95319.88
2023-03-07T05:31:58.949Z,95324.75
2023-03-07T05:37:20.752Z,95318.00
2023-03-07T05:42:41.958Z,95315.78
2023-03-07T05:48:03.237Z,95318.94
2023-03-07T05:53:24.871Z,95323.25
2023-03-07T05:58:46.615Z,95315.09
2023-03-07T06:04:08.260Z,95317.16
2023-03-07T06:09:29.504Z,95314.16
2023-03-07T06:14:52.615Z,95312.94
2023-03-07T06:20:14.376Z,95318.28
2023-03-07T06:25:35.181Z,95316.09
2023-03-07T06:30:56.191Z,95320.06
2023-03-07T06:36:18.847Z,95313.47
2023-03-07T06:41:43.248Z,95310.75
2023-03-07T06:47:04.984Z,95313.91
2023-03-07T06:52:26.547Z,95314.94
2023-03-07T06:57:47.408Z,95317.25
2023-03-07T07:03:12.755Z,95316.19
2023-03-07T07:08:33.631Z,95316.56
2023-03-07T07:13:55.015Z,95311.78
2023-03-07T07:19:16.974Z,95323.19
2023-03-07T07:24:39.387Z,95311.88
2023-03-07T07:30:01.144Z,95306.16
2023-03-07T07:35:22.386Z,95306.44
2023-03-07T07:40:45.137Z,95304.88
2023-03-07T07:46:07.722Z,95302.09
2023-03-07T07:51:28.766Z,95301.22
2023-03-07T07:56:50.128Z,95308.69
2023-03-07T08:02:13.871Z,95294.09
2023-03-07T08:07:34.816Z,95289.63
2023-03-07T08:12:55.484Z,95301.44
2023-03-07T08:18:16.136Z,95297.22
2023-03-07T08:23:37.043Z,95301.19
2023-03-07T08:28:58.987Z,95291.88
2023-03-07T08:34:19.926Z,95294.69
2023-03-07T08:39:40.755Z,95284.44
2023-03-07T08:45:01.635Z,95286.63
2023-03-07T08:50:28.305Z,95293.28
2023-03-07T08:55:49.267Z,95297.50
2023-03-07T09:01:11.014Z,95319.28
2023-03-07T09:06:31.724Z,95301.13
2023-03-07T09:11:52.838Z,95311.69
2023-03-07T09:17:13.548Z,95303.19
2023-03-07T09:22:34.345Z,95308.09
2023-03-07T09:27:56.547Z,95306.19
2023-03-07T09:33:17.298Z,95300.72
2023-03-07T09:38:38.535Z,95286.78
2023-03-07T09:44:05.363Z,95277.06
2023-03-07T09:49:54.343Z,95260.41
2023-03-07T09:55:20.823Z,95268.03
2023-03-07T10:00:43.089Z,95262.88
2023-03-07T10:06:20.099Z,95260.03
2023-03-07T10:11:53.684Z,95247.97
2023-03-07T10:17:22.497Z,95242.81
2023-03-07T10:22:52.718Z,95243.88
2023-03-07T10:28:25.179Z,95250.69
2023-03-07T10:33:48.719Z,95244.03
2023-03-07T10:39:27.729Z,95239.56
2023-03-07T10:44:51.052Z,95236.56
2023-03-07T10:50:37.120Z,95229.78
2023-03-07T10:56:15.618Z,95225.00
2023-03-07T11:01:39.011Z,95222.41
2023-03-07T11:07:01.176Z,95213.50
2023-03-07T11:12:24.575Z,95199.22
2023-03-07T11:17:48.468Z,95198.09
2023-03-07T11:23:23.676Z,95188.66
2023-03-07T11:28:44.330Z,95178.59
2023-03-07T11:34:42.341Z,95177.06
2023-03-07T11:40:23.639Z,95158.53
2023-03-07T11:45:47.526Z,95158.34
2023-03-07T11:51:26.324Z,95145.06
2023-03-07T11:56:52.045Z,95135.84
2023-03-07T12:02:56.997Z,95124.03
2023-03-07T12:08:30.841Z,95116.44
2023-03-07T12:14:20.508Z,95111.97
2023-03-07T12:20:12.652Z,95101.28
2023-03-07T12:25:53.630Z,95092.09
2023-03-07T12:31:23.383Z,95099.34
2023-03-07T12:37:03.107Z,95098.56
2023-03-07T12:42:32.817Z,95094.25
2023-03-07T12:47:57.519Z,95094.66
2023-03-07T12:53:35.612Z,95079.06
2023-03-07T12:59:10.330Z,95093.53
2023-03-07T13:04:36.435Z,95092.09
2023-03-07T13:09:59.367Z,95073.44
2023-03-07T13:15:21.011Z,95075.06
2023-03-07T13:20:43.686Z,95075.22
2023-03-07T13:26:11.104Z,95071.03
2023-03-07T13:31:39.516Z,95068.59
2023-03-07T13:37:38.893Z,95063.47
2023-03-07T13:42:59.907Z,95060.69
2023-03-07T13:48:20.577Z,95046.41
2023-03-07T13:54:07.306Z,95045.44
2023-03-07T13:59:28.396Z,95036.72
2023-03-07T14:04:55.779Z,95035.78
2023-03-07T14:10:28.722Z,95035.91
2023-03-07T14:16:10.333Z,95026.97
2023-03-07T14:21:46.351Z,95033.69
2023-03-07T14:27:14.146Z,95011.09
2023-03-07T14:32:35.514Z,95030.53
2023-03-07T14:37:56.411Z,95024.56
2023-03-07T14:43:50.466Z,95026.69
2023-03-07T14:49:42.323Z,95025.91
2023-03-07T14:55:06.876Z,95016.94
2023-03-07T15:00:29.293Z,95029.84
2023-03-07T15:05:57.372Z,95022.97
2023-03-07T15:11:27.937Z,95022.34
2023-03-07T15:16:50.408Z,95018.78
2023-03-07T15:22:26.451Z,95019.31
2023-03-07T15:27:58.623Z,95010.88
2023-03-07T15:33:19.483Z,95023.16
2023-03-07T15:38:43.147Z,95010.19
2023-03-07T15:44:19.888Z,95008.38
2023-03-07T15:49:47.403Z,95011.53
2023-03-07T15:55:20.342Z,95014.13
2023-03-07T16:00:42.311Z,95011.03
2023-03-07T16:06:03.343Z,95017.47
2023-03-07T16:11:24.420Z,95026.44
2023-03-07T16:16:45.114Z,95033.09
2023-03-07T16:22:13.597Z,95031.31
2023-03-07T16:27:34.367Z,95030.09
2023-03-07T16:32:55.701Z,95032.09
2023-03-07T16:38:16.836Z,95029.16
2023-03-07T16:43:38.652Z,95027.25
2023-03-07T16:48:59.593Z,95032.03
2023-03-07T16:54:20.754Z,95029.91
2023-03-07T16:59:48.119Z,95036.72
2023-03-07T17:05:17.642Z,95043.72
2023-03-07T17:10:39.931Z,95056.56
2023-03-07T17:16:01.203Z,95048.88
2023-03-07T17:21:23.082Z,95058.19
2023-03-07T17:26:45.711Z,95065.56
2023-03-07T17:32:07.583Z,95062.63
2023-03-07T17:37:29.981Z,95062.75
2023-03-07T17:42:52.062Z,95064.09
2023-03-07T17:48:13.146Z,95060.63
2023-03-07T17:53:35.898Z,95063.34
2023-03-07T17:59:01.503Z,95064.22
2023-03-07T18:04:22.551Z,95058.81
2023-03-07T18:09:43.189Z,95060.75
2023-03-07T18:15:05.210Z,95043.25
2023-03-07T18:20:28.031Z,95057.50
2023-03-07T18:25:59.294Z,95055.22
2023-03-07T18:31:25.784Z,95058.09
2023-03-07T18:36:51.494Z,95057.41
2023-03-07T18:42:12.454Z,95050.34
2023-03-07T18:47:33.389Z,95051.31
2023-03-07T18:52:54.123Z,95051.91
2023-03-07T18:58:16.447Z,95050.56
2023-03-07T19:03:37.493Z,95056.44
2023-03-07T19:08:59.808Z,95053.25
2023-03-07T19:14:20.537Z,95057.50
2023-03-07T19:19:41.350Z,95060.47
2023-03-07T19:25:01.962Z,95074.16
2023-03-07T19:30:22.812Z,95076.78
2023-03-07T19:35:43.580Z,95071.03
2023-03-07T19:41:09.474Z,95069.44
2023-03-07T19:46:30.272Z,95072.44
2023-03-07T19:51:50.904Z,95067.72
2023-03-07T19:57:14.985Z,95048.72
2023-03-07T20:02:36.041Z,95066.94
2023-03-07T20:07:56.719Z,95061.25
2023-03-07T20:13:17.590Z,95064.66
2023-03-07T20:18:38.954Z,95064.53
2023-03-07T20:24:00.928Z,95083.41
2023-03-07T20:29:21.904Z,95083.41
2023-03-07T20:34:42.985Z,95096.97
2023-03-07T20:40:06.516Z,95095.34
2023-03-07T20:45:27.243Z,95092.50
2023-03-07T20:50:48.184Z,95098.03
2023-03-07T20:56:09.477Z,95097.78
2023-03-07T21:01:32.777Z,95087.47
2023-03-07T21:06:54.265Z,95099.56
2023-03-07T21:12:15.024Z,95093.72
2023-03-07T21:17:37.122Z,95095.78
2023-03-07T21:22:58.023Z,95098.72
2023-03-07T21:28:18.862Z,95092.94
2023-03-07T21:33:41.516Z,95109.72
2023-03-07T21:39:05.284Z,95110.81
2023-03-07T21:44:26.908Z,95102.81
2023-03-07T21:49:47.582Z,95102.28
2023-03-07T21:55:09.043Z,95099.03
2023-03-07T22:00:30.272Z,95110.97
2023-03-07T22:05:51.883Z,95114.91
2023-03-07T22:11:13.988Z,95117.31
2023-03-07T22:16:34.747Z,95110.28
2023-03-07T22:21:55.474Z,95107.81
2023-03-07T22:27:16.389Z,95106.59
2023-03-07T22:32:37.256Z,95104.19
2023-03-07T22:37:57.944Z,95102.41
2023-03-07T22:43:18.940Z,95105.13
2023-03-07T22:48:40.266Z,95110.69
2023-03-07T22:54:03.371Z,95100.25
2023-03-07T22:59:24.608Z,95096.59
2023-03-07T23:04:45.384Z,95092.25
2023-03-07T23:10:06.690Z,95104.97
2023-03-07T23:15:27.446Z,95099.69
2023-03-07T23:20:48.122Z,95113.81
2023-03-07T23:26:09.318Z,95123.41
2023-03-07T23:31:36.695Z,95117.59
2023-03-07T23:36:57.743Z,95134.28
2023-03-07T23:42:19.589Z,95144.97
2023-03-07T23:47:40.644Z,95143.63
2023-03-07T23:53:01.585Z,95143.06
2023-03-07T23:58:22.238Z,95146.56
